Portada
METAR-TAF:

METAR-TAF

Aeroports :

Lanseria, Sud-àfrica

latitud: 25-56S, longitud: 027-56E, altitud: 1377 m

Observació

L'informe es va fer fa 1 hora i 8 minuts, a les 13:00 UTC
Vent 11 kt del Nord/Nord-Oest, variant entre Oest/Nord-Oest i Nord
Temperatura 29°C
Humitat 25%
Pressió 1024 hPa
Visibilitat 10 km o més
Escasses núvols a una alçada de 4500 ft

METAR: FALA 161300Z 33011KT 290V010 9999 FEW045 29/07 Q1024 NOSIG

Hora: 16:08 (14:08 UTC)

Pronòstic

L'informe es va fer fa 3 hores i 53 minuts, a les 10:15 UTC
Pronòstic vàlid del 16 a les 12 UTC al 17 a les 12 UTC
Vent 9 kt del Nord-Oest
Visibilitat 10 km o més
sense núvols per sota de 1500 mi sense presència de cumulonimbus.
Evolucionant progressivament
l' 16 a les 12 UTC al 16 a les 14 UTC
Vent 3 kt amb direcció variable
Evolucionant progressivament
l' 17 a les 10 UTC al 17 a les 12 UTC
Núvols disperses a una alçada de 4500 ft

TAF: FALA 161015Z 1612/1712 32009KT CAVOK TX30/1613Z TN12/1704Z BECMG 1612/1614 VRB03KT BECMG 1710/1712 SCT045

Observacions i pronòstics meteorològics de més de 4000 aeroports (METAR i TAF).

Les estacions disponibles són els punts grocs i vermells al mapa.

Posi el ratolí al punt desitjat per veure el nom de l'estació.

Feu clic per veure les observacions i els pronòstics meteorològics.

Per canviar el mapa: feu clic els botons verds amb una creu de color negre per apropar; al botó verd amb un guió per allunyar la imatge; o en les fletxes verdes per a mapes adjacents.


METAR-TAF: